sensor_id;sensor_type;location;lat;lon;timestamp;pressure;altitude;pressure_sealevel;temperature;humidity
35443;BME280;21561;55.654;37.592;2023-02-18T00:01:33;99422.78;;;-10.05;96.89
35443;BME280;21561;55.654;37.592;2023-02-18T00:04:00;99417.56;;;-10.08;96.83
35443;BME280;21561;55.654;37.592;2023-02-18T00:06:30;99410.13;;;-10.07;96.78
35443;BME280;21561;55.654;37.592;2023-02-18T00:08:58;99405.09;;;-10.07;96.73
35443;BME280;21561;55.654;37.592;2023-02-18T00:11:29;99405.03;;;-10.08;96.92
35443;BME280;21561;55.654;37.592;2023-02-18T00:13:59;99406.75;;;-10.07;96.88
35443;BME280;21561;55.654;37.592;2023-02-18T00:16:28;99410.34;;;-10.04;96.69
35443;BME280;21561;55.654;37.592;2023-02-18T00:19:01;99403.69;;;-10.03;96.44
35443;BME280;21561;55.654;37.592;2023-02-18T00:21:29;99406.97;;;-10.04;96.57
35443;BME280;21561;55.654;37.592;2023-02-18T00:23:56;99400.75;;;-10.09;96.69
35443;BME280;21561;55.654;37.592;2023-02-18T00:26:23;99395.72;;;-10.09;96.70
35443;BME280;21561;55.654;37.592;2023-02-18T00:28:50;99388.94;;;-10.10;96.64
35443;BME280;21561;55.654;37.592;2023-02-18T00:31:29;99392.47;;;-10.08;96.34
35443;BME280;21561;55.654;37.592;2023-02-18T00:33:57;99385.69;;;-10.09;96.38
35443;BME280;21561;55.654;37.592;2023-02-18T00:36:25;99388.94;;;-10.10;96.45
35443;BME280;21561;55.654;37.592;2023-02-18T00:38:55;99383.94;;;-10.10;96.39
35443;BME280;21561;55.654;37.592;2023-02-18T00:41:24;99383.94;;;-10.10;96.62
35443;BME280;21561;55.654;37.592;2023-02-18T00:43:51;99373.69;;;-10.13;97.08
35443;BME280;21561;55.654;37.592;2023-02-18T00:46:19;99372.81;;;-10.14;97.11
35443;BME280;21561;55.654;37.592;2023-02-18T00:48:46;99376.31;;;-10.12;96.91
35443;BME280;21561;55.654;37.592;2023-02-18T00:51:13;99369.44;;;-10.14;96.71
35443;BME280;21561;55.654;37.592;2023-02-18T00:53:40;99368.69;;;-10.13;96.98
35443;BME280;21561;55.654;37.592;2023-02-18T00:56:07;99364.53;;;-10.13;96.56
35443;BME280;21561;55.654;37.592;2023-02-18T00:58:35;99366.06;;;-10.15;96.55
35443;BME280;21561;55.654;37.592;2023-02-18T01:01:03;99370.22;;;-10.15;96.65
35443;BME280;21561;55.654;37.592;2023-02-18T01:03:33;99359.97;;;-10.19;96.56
35443;BME280;21561;55.654;37.592;2023-02-18T01:06:00;99353.00;;;-10.23;96.20
35443;BME280;21561;55.654;37.592;2023-02-18T01:08:26;99344.47;;;-10.25;96.42
35443;BME280;21561;55.654;37.592;2023-02-18T01:10:56;99339.25;;;-10.28;96.19
35443;BME280;21561;55.654;37.592;2023-02-18T01:13:23;99330.75;;;-10.30;96.16
35443;BME280;21561;55.654;37.592;2023-02-18T01:15:50;99333.81;;;-10.34;96.05
35443;BME280;21561;55.654;37.592;2023-02-18T01:18:19;99322.69;;;-10.38;96.24
35443;BME280;21561;55.654;37.592;2023-02-18T01:20:46;99314.88;;;-10.42;96.33
35443;BME280;21561;55.654;37.592;2023-02-18T01:23:13;99314.63;;;-10.45;96.13
35443;BME280;21561;55.654;37.592;2023-02-18T01:25:40;99306.78;;;-10.50;96.33
35443;BME280;21561;55.654;37.592;2023-02-18T01:28:10;99298.41;;;-10.50;96.77
35443;BME280;21561;55.654;37.592;2023-02-18T01:30:37;99294.47;;;-10.59;96.90
35443;BME280;21561;55.654;37.592;2023-02-18T01:33:04;99291.75;;;-10.62;96.95
35443;BME280;21561;55.654;37.592;2023-02-18T01:35:32;99290.00;;;-10.63;96.70
35443;BME280;21561;55.654;37.592;2023-02-18T01:37:59;99288.06;;;-10.67;96.71
35443;BME280;21561;55.654;37.592;2023-02-18T01:40:27;99284.56;;;-10.69;96.97
35443;BME280;21561;55.654;37.592;2023-02-18T01:42:55;99287.84;;;-10.70;97.43
35443;BME280;21561;55.654;37.592;2023-02-18T01:48:08;99272.03;;;-10.69;97.92
35443;BME280;21561;55.654;37.592;2023-02-18T01:50:39;99269.63;;;-10.67;97.64
35443;BME280;21561;55.654;37.592;2023-02-18T01:53:07;99254.16;;;-10.62;97.32
35443;BME280;21561;55.654;37.592;2023-02-18T01:55:34;99250.09;;;-10.60;96.70
35443;BME280;21561;55.654;37.592;2023-02-18T01:58:02;99260.13;;;-10.60;96.74
35443;BME280;21561;55.654;37.592;2023-02-18T02:00:29;99252.63;;;-10.60;97.08
35443;BME280;21561;55.654;37.592;2023-02-18T02:02:58;99252.63;;;-10.60;96.92
35443;BME280;21561;55.654;37.592;2023-02-18T02:05:30;99250.84;;;-10.61;97.45
35443;BME280;21561;55.654;37.592;2023-02-18T02:07:57;99244.66;;;-10.66;98.02
35443;BME280;21561;55.654;37.592;2023-02-18T02:10:57;99244.41;;;-10.57;97.34
35443;BME280;21561;55.654;37.592;2023-02-18T02:22:10;99230.16;;;-10.70;98.67
35443;BME280;21561;55.654;37.592;2023-02-18T02:24:47;99227.66;;;-10.70;98.58
35443;BME280;21561;55.654;37.592;2023-02-18T02:36:14;99228.50;;;-10.58;97.48
35443;BME280;21561;55.654;37.592;2023-02-18T02:44:19;99209.53;;;-10.66;98.25
35443;BME280;21561;55.654;37.592;2023-02-18T02:46:52;99223.28;;;-10.61;97.71
35443;BME280;21561;55.654;37.592;2023-02-18T02:54:21;99185.47;;;-10.64;98.92
35443;BME280;21561;55.654;37.592;2023-02-18T02:56:49;99187.97;;;-10.64;98.76
35443;BME280;21561;55.654;37.592;2023-02-18T02:59:23;99188.38;;;-10.58;99.13
35443;BME280;21561;55.654;37.592;2023-02-18T03:10:09;99170.50;;;-10.62;100.00
35443;BME280;21561;55.654;37.592;2023-02-18T03:18:48;99158.31;;;-10.69;100.00
35443;BME280;21561;55.654;37.592;2023-02-18T03:21:18;99141.97;;;-10.64;100.00
35443;BME280;21561;55.654;37.592;2023-02-18T03:23:56;99141.31;;;-10.62;100.00
35443;BME280;21561;55.654;37.592;2023-02-18T03:26:25;99125.59;;;-10.59;100.00
35443;BME280;21561;55.654;37.592;2023-02-18T03:28:55;99131.16;;;-10.51;100.00
35443;BME280;21561;55.654;37.592;2023-02-18T03:31:27;99131.03;;;-10.53;100.00
35443;BME280;21561;55.654;37.592;2023-02-18T03:34:02;99125.34;;;-10.50;100.00
35443;BME280;21561;55.654;37.592;2023-02-18T03:36:32;99119.69;;;-10.48;100.00
35443;BME280;21561;55.654;37.592;2023-02-18T03:39:04;99115.53;;;-10.47;100.00
35443;BME280;21561;55.654;37.592;2023-02-18T03:41:33;99112.91;;;-10.49;100.00
35443;BME280;21561;55.654;37.592;2023-02-18T03:44:04;99113.03;;;-10.47;100.00
35443;BME280;21561;55.654;37.592;2023-02-18T03:46:31;99110.28;;;-10.50;100.00
35443;BME280;21561;55.654;37.592;2023-02-18T03:49:00;99111.84;;;-10.52;100.00
35443;BME280;21561;55.654;37.592;2023-02-18T03:51:27;99098.88;;;-10.59;100.00
35443;BME280;21561;55.654;37.592;2023-02-18T03:53:54;99099.66;;;-10.60;100.00
35443;BME280;21561;55.654;37.592;2023-02-18T03:56:21;99087.13;;;-10.60;100.00
35443;BME280;21561;55.654;37.592;2023-02-18T03:58:48;99089.63;;;-10.60;100.00
35443;BME280;21561;55.654;37.592;2023-02-18T04:01:15;99091.91;;;-10.63;100.00
35443;BME280;21561;55.654;37.592;2023-02-18T04:03:41;99084.59;;;-10.60;100.00
35443;BME280;21561;55.654;37.592;2023-02-18T04:06:09;99090.19;;;-10.64;100.00
35443;BME280;21561;55.654;37.592;2023-02-18T04:08:36;99076.13;;;-10.62;100.00
35443;BME280;21561;55.654;37.592;2023-02-18T04:11:03;99068.69;;;-10.60;100.00
35443;BME280;21561;55.654;37.592;2023-02-18T04:13:31;99069.78;;;-10.57;100.00
35443;BME280;21561;55.654;37.592;2023-02-18T04:15:57;99066.47;;;-10.56;100.00
35443;BME280;21561;55.654;37.592;2023-02-18T04:18:24;99061.69;;;-10.52;100.00
35443;BME280;21561;55.654;37.592;2023-02-18T04:20:51;99063.63;;;-10.48;100.00
35443;BME280;21561;55.654;37.592;2023-02-18T04:23:18;99045.50;;;-10.44;100.00
35443;BME280;21561;55.654;37.592;2023-02-18T04:25:45;99049.16;;;-10.39;100.00
35443;BME280;21561;55.654;37.592;2023-02-18T04:28:13;99038.47;;;-10.37;100.00
35443;BME280;21561;55.654;37.592;2023-02-18T04:30:40;99035.41;;;-10.32;100.00
35443;BME280;21561;55.654;37.592;2023-02-18T04:33:08;99039.03;;;-10.27;100.00
35443;BME280;21561;55.654;37.592;2023-02-18T04:35:35;99025.91;;;-10.23;100.00
35443;BME280;21561;55.654;37.592;2023-02-18T04:38:02;99009.63;;;-10.17;100.00
35443;BME280;21561;55.654;37.592;2023-02-18T04:40:29;99011.16;;;-10.19;100.00
35443;BME280;21561;55.654;37.592;2023-02-18T04:42:57;99024.19;;;-10.24;100.00
35443;BME280;21561;55.654;37.592;2023-02-18T04:45:25;99025.06;;;-10.24;100.00
35443;BME280;21561;55.654;37.592;2023-02-18T04:47:52;99027.94;;;-10.18;100.00
35443;BME280;21561;55.654;37.592;2023-02-18T04:50:19;99023.94;;;-10.15;100.00
35443;BME280;21561;55.654;37.592;2023-02-18T04:52:46;99024.56;;;-10.18;100.00
35443;BME280;21561;55.654;37.592;2023-02-18T04:55:13;99022.06;;;-10.18;100.00
35443;BME280;21561;55.654;37.592;2023-02-18T04:57:40;99016.94;;;-10.20;100.00
35443;BME280;21561;55.654;37.592;2023-02-18T05:00:08;99017.16;;;-10.17;100.00
35443;BME280;21561;55.654;37.592;2023-02-18T05:02:35;99000.34;;;-10.18;100.00
35443;BME280;21561;55.654;37.592;2023-02-18T05:05:02;99013.09;;;-10.14;100.00
35443;BME280;21561;55.654;37.592;2023-02-18T05:07:29;99004.91;;;-10.12;100.00
35443;BME280;21561;55.654;37.592;2023-02-18T05:09:56;99005.09;;;-10.09;100.00
35443;BME280;21561;55.654;37.592;2023-02-18T05:12:23;98992.66;;;-10.07;100.00
35443;BME280;21561;55.654;37.592;2023-02-18T05:14:49;99001.13;;;-10.05;100.00
35443;BME280;21561;55.654;37.592;2023-02-18T05:17:16;98999.59;;;-10.03;100.00
35443;BME280;21561;55.654;37.592;2023-02-18T05:19:43;98989.75;;;-10.00;100.00
35443;BME280;21561;55.654;37.592;2023-02-18T05:22:10;98973.81;;;-10.01;100.00
35443;BME280;21561;55.654;37.592;2023-02-18T05:24:37;98982.31;;;-9.99;100.00
35443;BME280;21561;55.654;37.592;2023-02-18T05:27:03;98982.31;;;-9.99;100.00
35443;BME280;21561;55.654;37.592;2023-02-18T05:29:30;98976.25;;;-10.02;100.00
35443;BME280;21561;55.654;37.592;2023-02-18T05:31:57;98976.44;;;-9.99;100.00
35443;BME280;21561;55.654;37.592;2023-02-18T05:34:24;98972.97;;;-10.01;100.00
35443;BME280;21561;55.654;37.592;2023-02-18T05:36:51;98957.03;;;-10.02;100.00
35443;BME280;21561;55.654;37.592;2023-02-18T05:39:18;98959.63;;;-10.00;100.00
35443;BME280;21561;55.654;37.592;2023-02-18T05:41:45;98963.31;;;-9.95;100.00
35443;BME280;21561;55.654;37.592;2023-02-18T05:44:11;98960.19;;;-9.91;100.00
35443;BME280;21561;55.654;37.592;2023-02-18T05:47:01;98960.41;;;-9.88;100.00
35443;BME280;21561;55.654;37.592;2023-02-18T05:49:30;98943.53;;;-9.90;100.00
35443;BME280;21561;55.654;37.592;2023-02-18T05:51:58;98933.53;;;-9.89;100.00
35443;BME280;21561;55.654;37.592;2023-02-18T05:54:25;98930.28;;;-9.88;99.71
35443;BME280;21561;55.654;37.592;2023-02-18T05:56:52;98927.88;;;-9.86;100.00
35443;BME280;21561;55.654;37.592;2023-02-18T05:59:20;98925.63;;;-9.82;99.89
35443;BME280;21561;55.654;37.592;2023-02-18T06:01:47;98922.34;;;-9.81;99.34
35443;BME280;21561;55.654;37.592;2023-02-18T06:04:14;98913.84;;;-9.83;99.41
35443;BME280;21561;55.654;37.592;2023-02-18T06:06:41;98920.78;;;-9.79;99.52
35443;BME280;21561;55.654;37.592;2023-02-18T06:09:09;98919.44;;;-9.73;99.61
35443;BME280;21561;55.654;37.592;2023-02-18T06:11:36;98909.00;;;-9.66;99.31
35443;BME280;21561;55.654;37.592;2023-02-18T06:14:03;98909.34;;;-9.60;99.44
35443;BME280;21561;55.654;37.592;2023-02-18T06:16:31;98903.47;;;-9.61;98.66
35443;BME280;21561;55.654;37.592;2023-02-18T06:18:58;98908.38;;;-9.62;98.44
35443;BME280;21561;55.654;37.592;2023-02-18T06:21:25;98901.44;;;-9.66;97.73
35443;BME280;21561;55.654;37.592;2023-02-18T06:23:52;98897.59;;;-9.74;97.93
35443;BME280;21561;55.654;37.592;2023-02-18T06:26:18;98892.22;;;-9.81;97.81
35443;BME280;21561;55.654;37.592;2023-02-18T06:28:45;98885.84;;;-9.75;98.13
35443;BME280;21561;55.654;37.592;2023-02-18T06:31:12;98888.81;;;-9.68;98.36
35443;BME280;21561;55.654;37.592;2023-02-18T06:33:39;98889.84;;;-9.64;98.16
35443;BME280;21561;55.654;37.592;2023-02-18T06:36:08;98881.72;;;-9.60;98.26
35443;BME280;21561;55.654;37.592;2023-02-18T06:38:42;98877.06;;;-9.54;97.95
35443;BME280;21561;55.654;37.592;2023-02-18T06:41:11;98872.81;;;-9.55;97.45
35443;BME280;21561;55.654;37.592;2023-02-18T06:43:38;98877.38;;;-9.63;96.60
35443;BME280;21561;55.654;37.592;2023-02-18T06:46:06;98869.00;;;-9.63;96.78
35443;BME280;21561;55.654;37.592;2023-02-18T06:48:33;98864.13;;;-9.60;97.16
35443;BME280;21561;55.654;37.592;2023-02-18T06:51:00;98860.88;;;-9.59;96.40
35443;BME280;21561;55.654;37.592;2023-02-18T06:53:27;98861.22;;;-9.53;96.52
35443;BME280;21561;55.654;37.592;2023-02-18T06:55:54;98842.44;;;-9.45;96.53
35443;BME280;21561;55.654;37.592;2023-02-18T06:58:21;98846.72;;;-9.44;96.09
35443;BME280;21561;55.654;37.592;2023-02-18T07:00:49;98850.19;;;-9.42;95.77
35443;BME280;21561;55.654;37.592;2023-02-18T07:03:16;98840.69;;;-9.46;94.80
35443;BME280;21561;55.654;37.592;2023-02-18T07:05:43;98840.53;;;-9.49;95.01
35443;BME280;21561;55.654;37.592;2023-02-18T07:08:11;98836.56;;;-9.45;95.45
35443;BME280;21561;55.654;37.592;2023-02-18T07:10:38;98839.94;;;-9.45;94.63
35443;BME280;21561;55.654;37.592;2023-02-18T07:13:04;98831.22;;;-9.36;94.67
35443;BME280;21561;55.654;37.592;2023-02-18T07:15:32;98829.03;;;-9.30;94.38
35443;BME280;21561;55.654;37.592;2023-02-18T07:17:59;98825.59;;;-9.32;94.39
35443;BME280;21561;55.654;37.592;2023-02-18T07:20:26;98814.59;;;-9.34;94.20
35443;BME280;21561;55.654;37.592;2023-02-18T07:22:53;98814.91;;;-9.28;94.56
35443;BME280;21561;55.654;37.592;2023-02-18T07:25:20;98803.69;;;-9.20;93.85
35443;BME280;21561;55.654;37.592;2023-02-18T07:27:49;98802.53;;;-9.25;93.63
35443;BME280;21561;55.654;37.592;2023-02-18T07:30:18;98795.00;;;-9.25;93.88
35443;BME280;21561;55.654;37.592;2023-02-18T07:32:45;98793.44;;;-9.23;94.40
35443;BME280;21561;55.654;37.592;2023-02-18T07:35:14;98788.94;;;-9.14;94.11
35443;BME280;21561;55.654;37.592;2023-02-18T07:37:46;98790.84;;;-9.10;93.92
35443;BME280;21561;55.654;37.592;2023-02-18T07:40:15;98783.47;;;-9.07;94.03
35443;BME280;21561;55.654;37.592;2023-02-18T07:42:42;98779.56;;;-9.02;93.48
35443;BME280;21561;55.654;37.592;2023-02-18T07:45:10;98771.78;;;-8.91;94.69
35443;BME280;21561;55.654;37.592;2023-02-18T07:47:38;98770.38;;;-8.86;93.66
35443;BME280;21561;55.654;37.592;2023-02-18T07:50:05;98761.00;;;-8.89;93.23
35443;BME280;21561;55.654;37.592;2023-02-18T07:52:32;98763.78;;;-8.84;93.41
35443;BME280;21561;55.654;37.592;2023-02-18T07:54:59;98757.19;;;-8.82;93.46
35443;BME280;21561;55.654;37.592;2023-02-18T07:57:26;98760.03;;;-8.76;93.42
35443;BME280;21561;55.654;37.592;2023-02-18T07:59:53;98759.25;;;-8.75;92.97
35443;BME280;21561;55.654;37.592;2023-02-18T08:02:21;98757.69;;;-8.73;93.01
35443;BME280;21561;55.654;37.592;2023-02-18T08:04:49;98745.09;;;-8.73;93.34
35443;BME280;21561;55.654;37.592;2023-02-18T08:07:17;98738.50;;;-8.71;93.28
35443;BME280;21561;55.654;37.592;2023-02-18T08:09:46;98738.59;;;-8.69;93.30
35443;BME280;21561;55.654;37.592;2023-02-18T08:12:15;98722.88;;;-8.65;93.93
35443;BME280;21561;55.654;37.592;2023-02-18T08:14:42;98720.88;;;-8.56;93.56
35443;BME280;21561;55.654;37.592;2023-02-18T08:17:09;98716.34;;;-8.47;93.88
35443;BME280;21561;55.654;37.592;2023-02-18T08:19:35;98714.47;;;-8.33;93.83
35443;BME280;21561;55.654;37.592;2023-02-18T08:22:02;98714.47;;;-8.33;93.04
35443;BME280;21561;55.654;37.592;2023-02-18T08:24:29;98716.22;;;-8.32;93.25
35443;BME280;21561;55.654;37.592;2023-02-18T08:26:56;98719.00;;;-8.27;93.24
35443;BME280;21561;55.654;37.592;2023-02-18T08:29:27;98710.09;;;-8.20;93.24
35443;BME280;21561;55.654;37.592;2023-02-18T08:31:54;98706.34;;;-8.12;93.37
35443;BME280;21561;55.654;37.592;2023-02-18T08:34:24;98699.25;;;-8.03;93.13
35443;BME280;21561;55.654;37.592;2023-02-18T08:36:51;98691.38;;;-7.93;93.42
35443;BME280;21561;55.654;37.592;2023-02-18T08:39:18;98686.56;;;-7.88;92.64
35443;BME280;21561;55.654;37.592;2023-02-18T08:41:45;98679.16;;;-7.85;93.10
35443;BME280;21561;55.654;37.592;2023-02-18T08:44:12;98677.56;;;-7.83;92.87
35443;BME280;21561;55.654;37.592;2023-02-18T08:46:39;98676.81;;;-7.82;92.90
35443;BME280;21561;55.654;37.592;2023-02-18T08:49:06;98670.09;;;-7.81;92.87
35443;BME280;21561;55.654;37.592;2023-02-18T08:51:33;98667.66;;;-7.80;92.74
35443;BME280;21561;55.654;37.592;2023-02-18T08:54:00;98661.78;;;-7.80;93.19
35443;BME280;21561;55.654;37.592;2023-02-18T08:56:27;98658.28;;;-7.82;93.28
35443;BME280;21561;55.654;37.592;2023-02-18T08:58:54;98651.97;;;-7.74;93.10
35443;BME280;21561;55.654;37.592;2023-02-18T09:01:21;98645.19;;;-7.75;93.25
35443;BME280;21561;55.654;37.592;2023-02-18T09:03:48;98650.41;;;-7.72;93.82
35443;BME280;21561;55.654;37.592;2023-02-18T09:06:15;98645.53;;;-7.69;93.33
35443;BME280;21561;55.654;37.592;2023-02-18T09:08:42;98638.69;;;-7.54;94.13
35443;BME280;21561;55.654;37.592;2023-02-18T09:11:09;98637.50;;;-7.44;93.09
35443;BME280;21561;55.654;37.592;2023-02-18T09:13:37;98622.56;;;-7.39;92.52
35443;BME280;21561;55.654;37.592;2023-02-18T09:16:07;98623.72;;;-7.33;92.60
35443;BME280;21561;55.654;37.592;2023-02-18T09:18:34;98622.06;;;-7.32;92.62
35443;BME280;21561;55.654;37.592;2023-02-18T09:21:04;98615.59;;;-7.27;93.04
35443;BME280;21561;55.654;37.592;2023-02-18T09:23:32;98607.41;;;-7.23;92.27
35443;BME280;21561;55.654;37.592;2023-02-18T09:25:59;98600.88;;;-7.18;92.67
35443;BME280;21561;55.654;37.592;2023-02-18T09:28:29;98588.44;;;-7.15;92.80
35443;BME280;21561;55.654;37.592;2023-02-18T09:30:56;98589.66;;;-7.06;92.18
35443;BME280;21561;55.654;37.592;2023-02-18T09:33:23;98585.28;;;-6.91;93.10
35443;BME280;21561;55.654;37.592;2023-02-18T09:35:50;98580.94;;;-6.76;91.38
35443;BME280;21561;55.654;37.592;2023-02-18T09:38:16;98569.16;;;-6.75;90.15
35443;BME280;21561;55.654;37.592;2023-02-18T09:40:46;98564.88;;;-6.78;89.82
35443;BME280;21561;55.654;37.592;2023-02-18T09:43:26;98562.34;;;-6.78;89.92
35443;BME280;21561;55.654;37.592;2023-02-18T09:45:55;98568.84;;;-6.83;90.14
35443;BME280;21561;55.654;37.592;2023-02-18T09:48:27;98558.47;;;-6.69;89.64
35443;BME280;21561;55.654;37.592;2023-02-18T09:50:54;98551.72;;;-6.51;89.40
35443;BME280;21561;55.654;37.592;2023-02-18T09:53:23;98544.78;;;-6.36;88.40
35443;BME280;21561;55.654;37.592;2023-02-18T09:55:52;98540.78;;;-6.30;87.53
35443;BME280;21561;55.654;37.592;2023-02-18T09:58:22;98525.41;;;-6.37;87.00
35443;BME280;21561;55.654;37.592;2023-02-18T10:01:11;98525.63;;;-6.30;88.20
35443;BME280;21561;55.654;37.592;2023-02-18T10:03:41;98521.66;;;-6.25;88.45
35443;BME280;21561;55.654;37.592;2023-02-18T10:06:30;98501.41;;;-6.06;87.89
35443;BME280;21561;55.654;37.592;2023-02-18T10:09:04;98508.41;;;-5.99;87.18
35443;BME280;21561;55.654;37.592;2023-02-18T10:11:46;98502.09;;;-5.87;87.08
35443;BME280;21561;55.654;37.592;2023-02-18T10:14:15;98489.25;;;-5.71;86.64
35443;BME280;21561;55.654;37.592;2023-02-18T10:16:46;98493.16;;;-5.57;85.05
35443;BME280;21561;55.654;37.592;2023-02-18T10:19:31;98494.06;;;-5.54;85.30
35443;BME280;21561;55.654;37.592;2023-02-18T10:22:01;98487.88;;;-5.63;84.88
35443;BME280;21561;55.654;37.592;2023-02-18T10:24:43;98480.63;;;-5.76;84.88
35443;BME280;21561;55.654;37.592;2023-02-18T10:27:17;98480.63;;;-5.76;85.20
35443;BME280;21561;55.654;37.592;2023-02-18T10:29:47;98467.94;;;-5.78;85.28
35443;BME280;21561;55.654;37.592;2023-02-18T10:32:27;98461.34;;;-5.51;86.15
35443;BME280;21561;55.654;37.592;2023-02-18T10:35:23;98453.50;;;-5.35;84.74
35443;BME280;21561;55.654;37.592;2023-02-18T10:46:06;98447.41;;;-5.18;81.99
35443;BME280;21561;55.654;37.592;2023-02-18T10:51:21;98426.44;;;-5.15;81.82
35443;BME280;21561;55.654;37.592;2023-02-18T10:53:51;98438.59;;;-4.81;80.97
35443;BME280;21561;55.654;37.592;2023-02-18T10:56:34;98428.66;;;-4.23;80.44
35443;BME280;21561;55.654;37.592;2023-02-18T10:59:25;98423.28;;;-3.78;79.24
35443;BME280;21561;55.654;37.592;2023-02-18T11:02:01;98419.81;;;-3.53;76.43
35443;BME280;21561;55.654;37.592;2023-02-18T11:04:43;98418.38;;;-3.43;76.88
35443;BME280;21561;55.654;37.592;2023-02-18T11:07:12;98421.00;;;-3.40;80.19
35443;BME280;21561;55.654;37.592;2023-02-18T11:09:45;98408.81;;;-3.53;76.61
35443;BME280;21561;55.654;37.592;2023-02-18T11:12:25;98407.34;;;-3.45;75.74
35443;BME280;21561;55.654;37.592;2023-02-18T11:15:16;98408.97;;;-3.47;77.55
35443;BME280;21561;55.654;37.592;2023-02-18T11:17:47;98400.91;;;-3.64;76.36
35443;BME280;21561;55.654;37.592;2023-02-18T11:20:27;98398.22;;;-3.69;76.05
35443;BME280;21561;55.654;37.592;2023-02-18T11:23:13;98399.22;;;-3.92;76.62
35443;BME280;21561;55.654;37.592;2023-02-18T11:25:59;98385.63;;;-3.94;76.53
35443;BME280;21561;55.654;37.592;2023-02-18T11:30:59;98379.28;;;-4.09;77.91
35443;BME280;21561;55.654;37.592;2023-02-18T11:33:40;98371.84;;;-4.03;76.62
35443;BME280;21561;55.654;37.592;2023-02-18T11:38:50;98368.66;;;-4.24;76.84
35443;BME280;21561;55.654;37.592;2023-02-18T11:41:39;98367.38;;;-4.38;77.23
35443;BME280;21561;55.654;37.592;2023-02-18T11:44:41;98367.59;;;-4.32;78.19
35443;BME280;21561;55.654;37.592;2023-02-18T11:49:42;98373.19;;;-4.68;78.08
35443;BME280;21561;55.654;37.592;2023-02-18T11:52:29;98358.47;;;-4.80;78.79
35443;BME280;21561;55.654;37.592;2023-02-18T11:54:59;98356.97;;;-4.99;79.36
35443;BME280;21561;55.654;37.592;2023-02-18T11:57:31;98356.97;;;-4.99;79.65
35443;BME280;21561;55.654;37.592;2023-02-18T11:59:59;98349.53;;;-4.94;79.42
35443;BME280;21561;55.654;37.592;2023-02-18T12:02:33;98347.19;;;-4.90;79.43
35443;BME280;21561;55.654;37.592;2023-02-18T12:05:04;98340.91;;;-4.75;79.19
35443;BME280;21561;55.654;37.592;2023-02-18T12:10:41;98330.84;;;-4.72;78.84
35443;BME280;21561;55.654;37.592;2023-02-18T12:13:27;98323.81;;;-4.81;79.04
35443;BME280;21561;55.654;37.592;2023-02-18T12:26:51;98313.88;;;-4.76;78.59
35443;BME280;21561;55.654;37.592;2023-02-18T12:32:08;98308.22;;;-4.95;79.01
35443;BME280;21561;55.654;37.592;2023-02-18T12:40:29;98304.97;;;-5.16;79.98
35443;BME280;21561;55.654;37.592;2023-02-18T12:46:13;98294.63;;;-5.23;80.53
35443;BME280;21561;55.654;37.592;2023-02-18T12:54:28;98287.94;;;-5.46;81.11
35443;BME280;21561;55.654;37.592;2023-02-18T12:57:31;98290.88;;;-5.58;81.45
35443;BME280;21561;55.654;37.592;2023-02-18T13:05:31;98271.84;;;-5.74;81.44
35443;BME280;21561;55.654;37.592;2023-02-18T13:16:30;98270.13;;;-5.99;83.23
35443;BME280;21561;55.654;37.592;2023-02-18T13:21:25;98253.13;;;-6.03;83.58
35443;BME280;21561;55.654;37.592;2023-02-18T13:24:00;98259.97;;;-6.01;83.65
35443;BME280;21561;55.654;37.592;2023-02-18T13:26:30;98252.22;;;-6.05;84.40
35443;BME280;21561;55.654;37.592;2023-02-18T13:29:29;98253.13;;;-6.03;84.04
35443;BME280;21561;55.654;37.592;2023-02-18T13:34:30;98255.25;;;-6.14;84.16
35443;BME280;21561;55.654;37.592;2023-02-18T13:39:50;98247.69;;;-6.14;84.00
35443;BME280;21561;55.654;37.592;2023-02-18T13:47:44;98233.25;;;-6.18;84.49
35443;BME280;21561;55.654;37.592;2023-02-18T13:52:49;98231.28;;;-6.25;84.67
35443;BME280;21561;55.654;37.592;2023-02-18T13:55:21;98229.47;;;-6.29;85.11
35443;BME280;21561;55.654;37.592;2023-02-18T13:57:52;98212.47;;;-6.34;85.42
35443;BME280;21561;55.654;37.592;2023-02-18T14:00:24;98217.59;;;-6.32;85.99
35443;BME280;21561;55.654;37.592;2023-02-18T14:05:43;98210.97;;;-6.28;85.64
35443;BME280;21561;55.654;37.592;2023-02-18T14:08:15;98218.63;;;-6.27;85.92
35443;BME280;21561;55.654;37.592;2023-02-18T14:13:53;98211.38;;;-6.18;85.98
35443;BME280;21561;55.654;37.592;2023-02-18T14:16:20;98208.84;;;-6.18;85.67
35443;BME280;21561;55.654;37.592;2023-02-18T14:18:56;98199.72;;;-6.14;85.49
35443;BME280;21561;55.654;37.592;2023-02-18T14:21:39;98199.63;;;-6.17;85.52
35443;BME280;21561;55.654;37.592;2023-02-18T14:24:09;98200.34;;;-6.20;85.43
35443;BME280;21561;55.654;37.592;2023-02-18T14:26:42;98186.03;;;-6.21;85.76
35443;BME280;21561;55.654;37.592;2023-02-18T14:29:31;98191.69;;;-6.26;85.70
35443;BME280;21561;55.654;37.592;2023-02-18T14:32:02;98191.66;;;-6.28;86.15
35443;BME280;21561;55.654;37.592;2023-02-18T14:35:39;98194.13;;;-6.29;86.21
35443;BME280;21561;55.654;37.592;2023-02-18T14:40:35;98184.56;;;-6.38;86.24
35443;BME280;21561;55.654;37.592;2023-02-18T14:43:15;98177.03;;;-6.37;86.74
35443;BME280;21561;55.654;37.592;2023-02-18T14:51:24;98180.25;;;-6.41;86.67
35443;BME280;21561;55.654;37.592;2023-02-18T14:53:52;98180.16;;;-6.44;86.60
35443;BME280;21561;55.654;37.592;2023-02-18T14:56:20;98181.66;;;-6.49;86.63
35443;BME280;21561;55.654;37.592;2023-02-18T14:58:52;98174.00;;;-6.50;87.18
35443;BME280;21561;55.654;37.592;2023-02-18T15:01:33;98162.94;;;-6.54;86.96
35443;BME280;21561;55.654;37.592;2023-02-18T15:04:01;98174.31;;;-6.65;87.07
35443;BME280;21561;55.654;37.592;2023-02-18T15:06:34;98159.13;;;-6.67;87.07
35443;BME280;21561;55.654;37.592;2023-02-18T15:09:18;98159.97;;;-6.66;87.04
35443;BME280;21561;55.654;37.592;2023-02-18T15:11:59;98164.75;;;-6.74;87.44
35443;BME280;21561;55.654;37.592;2023-02-18T15:14:35;98157.88;;;-6.78;87.71
35443;BME280;21561;55.654;37.592;2023-02-18T15:17:05;98148.38;;;-6.84;87.99
35443;BME280;21561;55.654;37.592;2023-02-18T15:19:48;98145.19;;;-6.80;87.83
35443;BME280;21561;55.654;37.592;2023-02-18T15:22:19;98140.81;;;-6.84;88.22